Time;durP1;ratioP1;P1;durP2;ratioP2;P2;SDS_P1;SDS_P2;PMS_P1;PMS_P2;Temp;Humidity;BMP_temperature;BMP_pressure;BME280_temperature;BME280_humidity;BME280_pressure;Samples;Min_cycle;Max_cycle;Signal;HPM_P1;HPM_P2
2021/03/25 00:00:19;;;;;;;;;;;4.70;99.90;;;;;;5073843;28;19961;-77
2021/03/25 00:02:44;;;;;;;;;;;4.60;99.90;;;;;;5073694;28;20383;-77
2021/03/25 00:05:11;;;;;;;;;;;4.60;99.90;;;;;;5075612;28;19904;-77
2021/03/25 00:07:37;;;;;;;;;;;4.60;99.90;;;;;;5075661;28;19905;-77
2021/03/25 00:10:05;;;;;;;;;;;4.60;99.90;;;;;;5075306;28;20441;-77
2021/03/25 00:12:31;;;;;;;;;;;4.60;99.90;;;;;;5074333;28;19915;-76
2021/03/25 00:14:56;;;;;;;;;;;4.60;99.90;;;;;;5074160;28;19905;-77
2021/03/25 00:17:21;;;;;;;;;;;4.70;99.90;;;;;;5074932;28;20396;-76
2021/03/25 00:19:47;;;;;;;;;;;4.60;99.90;;;;;;5073454;28;19904;-76
2021/03/25 00:22:12;;;;;;;;;;;4.60;99.90;;;;;;5074592;28;19915;-79
2021/03/25 00:24:38;;;;;;;;;;;4.60;99.90;;;;;;5072892;28;20003;-76
2021/03/25 00:27:04;;;;;;;;;;;4.60;99.90;;;;;;5073314;28;19947;-76
2021/03/25 00:29:30;;;;;;;;;;;4.60;99.90;;;;;;5074394;28;19912;-76
2021/03/25 00:31:55;;;;;;;;;;;4.50;99.90;;;;;;5074254;28;19913;-76
2021/03/25 00:34:21;;;;;;;;;;;4.50;99.90;;;;;;5074150;28;19916;-77
2021/03/25 00:36:46;;;;;;;;;;;4.50;99.90;;;;;;5073079;28;20352;-77
2021/03/25 00:39:13;;;;;;;;;;;4.50;99.90;;;;;;5074033;28;19995;-76
2021/03/25 00:41:38;;;;;;;;;;;4.40;99.90;;;;;;5073094;28;19915;-76
2021/03/25 00:44:05;;;;;;;;;;;4.60;99.90;;;;;;5072879;28;19904;-75
2021/03/25 00:46:30;;;;;;;;;;;4.50;99.90;;;;;;5074068;28;19904;-77
2021/03/25 00:48:56;;;;;;;;;;;4.60;99.90;;;;;;5073011;28;19911;-76
2021/03/25 00:51:21;;;;;;;;;;;4.60;99.90;;;;;;5073918;28;19904;-77
2021/03/25 00:53:47;;;;;;;;;;;4.60;99.90;;;;;;5074215;28;19911;-77
2021/03/25 00:56:12;;;;;;;;;;;4.70;99.90;;;;;;5073504;28;20356;-77
2021/03/25 00:58:38;;;;;;;;;;;4.80;99.90;;;;;;5074670;28;19904;-77
2021/03/25 01:01:05;;;;;;;;;;;4.80;99.90;;;;;;5073315;28;19959;-77
2021/03/25 01:03:30;;;;;;;;;;;4.70;99.90;;;;;;5073017;28;19905;-77
2021/03/25 01:05:56;;;;;;;;;;;4.70;99.90;;;;;;5073882;28;19910;-77
2021/03/25 01:08:22;;;;;;;;;;;4.70;99.90;;;;;;5072538;28;19936;-77
2021/03/25 01:10:51;;;;;;;;;;;4.70;99.90;;;;;;5072677;28;19995;-76
2021/03/25 01:13:31;;;;;;;;;;;4.60;99.90;;;;;;5073617;28;19905;-77
2021/03/25 01:15:56;;;;;;;;;;;4.50;99.90;;;;;;5073189;28;19911;-76
2021/03/25 01:18:22;;;;;;;;;;;4.50;99.90;;;;;;5073440;28;19905;-77
2021/03/25 01:20:48;;;;;;;;;;;4.50;99.90;;;;;;5073383;28;20371;-77
2021/03/25 01:23:13;;;;;;;;;;;4.40;99.90;;;;;;5071950;28;20351;-77
2021/03/25 01:25:39;;;;;;;;;;;4.30;99.90;;;;;;5073393;28;19905;-77
2021/03/25 01:28:06;;;;;;;;;;;4.30;99.90;;;;;;5072480;28;19904;-78
2021/03/25 01:30:35;;;;;;;;;;;4.30;99.90;;;;;;5071868;28;19908;-77
2021/03/25 01:33:01;;;;;;;;;;;4.40;99.90;;;;;;5071980;28;19913;-77
2021/03/25 01:35:27;;;;;;;;;;;4.30;99.90;;;;;;5072191;28;19913;-79
2021/03/25 01:37:53;;;;;;;;;;;4.30;99.90;;;;;;5071858;28;20011;-77
2021/03/25 01:40:24;;;;;;;;;;;4.30;99.90;;;;;;5072838;28;20001;-77
2021/03/25 01:42:50;;;;;;;;;;;4.50;99.90;;;;;;5071678;28;19908;-77
2021/03/25 01:45:27;;;;;;;;;;;4.40;99.90;;;;;;5071428;28;19986;-77
2021/03/25 01:47:53;;;;;;;;;;;4.50;99.90;;;;;;5073581;28;19912;-77
2021/03/25 01:50:19;;;;;;;;;;;4.50;99.90;;;;;;5072988;28;20355;-78
2021/03/25 01:52:53;;;;;;;;;;;4.50;99.90;;;;;;5073404;28;20375;-77
2021/03/25 01:55:30;;;;;;;;;;;4.60;99.90;;;;;;5073099;28;20352;-77
2021/03/25 01:58:12;;;;;;;;;;;4.60;99.90;;;;;;5072214;28;19905;-77
2021/03/25 02:00:54;;;;;;;;;;;4.60;99.90;;;;;;5073262;28;19987;-78
2021/03/25 02:03:19;;;;;;;;;;;4.50;99.90;;;;;;5072251;28;20002;-77
2021/03/25 02:06:07;;;;;;;;;;;4.50;99.90;;;;;;5073156;28;19951;-77
2021/03/25 02:08:55;;;;;;;;;;;4.40;99.90;;;;;;5073089;28;19912;-76
2021/03/25 02:11:27;;;;;;;;;;;4.30;99.90;;;;;;5060698;28;19909;-76
2021/03/25 02:13:52;;;;;;;;;;;4.20;99.90;;;;;;5072483;28;19904;-77
2021/03/25 02:16:21;;;;;;;;;;;4.20;99.90;;;;;;5072713;28;19911;-76
2021/03/25 02:19:01;;;;;;;;;;;4.20;99.90;;;;;;5072599;28;19904;-77
2021/03/25 02:21:40;;;;;;;;;;;4.10;99.90;;;;;;5072237;28;19909;-77
2021/03/25 02:24:41;;;;;;;;;;;4.20;99.90;;;;;;5071546;28;19939;-78
2021/03/25 02:27:20;;;;;;;;;;;4.20;99.90;;;;;;4994422;28;19905;-76
2021/03/25 02:29:48;;;;;;;;;;;4.30;99.90;;;;;;5065541;28;19904;-77
2021/03/25 02:32:18;;;;;;;;;;;4.30;99.90;;;;;;5072608;28;20280;-77
2021/03/25 02:34:46;;;;;;;;;;;4.40;99.90;;;;;;5071171;28;19905;-76
2021/03/25 02:37:14;;;;;;;;;;;4.50;99.90;;;;;;5072563;28;19939;-76
2021/03/25 02:39:43;;;;;;;;;;;4.40;99.90;;;;;;5073957;28;19904;-79
2021/03/25 02:42:10;;;;;;;;;;;4.30;99.90;;;;;;5076459;28;19912;-77
2021/03/25 02:44:44;;;;;;;;;;;4.30;99.90;;;;;;5075923;28;19905;-78
2021/03/25 02:47:09;;;;;;;;;;;4.30;99.90;;;;;;5076331;28;19904;-76
2021/03/25 02:49:41;;;;;;;;;;;4.20;99.90;;;;;;5074941;28;20287;-77
2021/03/25 02:52:16;;;;;;;;;;;4.10;99.90;;;;;;5075066;28;20002;-77
2021/03/25 02:54:42;;;;;;;;;;;4.10;99.90;;;;;;5075299;28;19909;-77
2021/03/25 02:57:18;;;;;;;;;;;4.00;99.90;;;;;;5076135;28;19950;-76
2021/03/25 02:59:46;;;;;;;;;;;4.10;99.90;;;;;;5074796;28;19954;-77
2021/03/25 03:02:11;;;;;;;;;;;4.10;99.90;;;;;;5075886;28;19912;-79
2021/03/25 03:04:38;;;;;;;;;;;4.10;99.90;;;;;;5075938;28;19946;-77
2021/03/25 03:07:07;;;;;;;;;;;4.00;99.90;;;;;;5076563;28;19904;-77
2021/03/25 03:09:35;;;;;;;;;;;3.90;99.90;;;;;;5076866;28;19999;-78
2021/03/25 03:12:03;;;;;;;;;;;3.80;99.90;;;;;;5075854;28;19905;-77
2021/03/25 03:14:37;;;;;;;;;;;3.70;99.90;;;;;;5075602;28;19911;-77
2021/03/25 03:17:05;;;;;;;;;;;3.70;99.90;;;;;;5076469;28;19970;-77
2021/03/25 03:19:44;;;;;;;;;;;3.70;99.90;;;;;;5076989;28;19948;-78
2021/03/25 03:22:10;;;;;;;;;;;3.70;99.90;;;;;;5075127;28;19924;-76
2021/03/25 03:24:36;;;;;;;;;;;3.80;99.90;;;;;;5074621;28;19938;-77
2021/03/25 03:27:08;;;;;;;;;;;3.70;99.90;;;;;;5076495;28;19908;-77
2021/03/25 03:29:34;;;;;;;;;;;3.80;99.90;;;;;;5075792;28;19912;-77
2021/03/25 03:32:12;;;;;;;;;;;3.80;99.90;;;;;;5074250;28;19912;-77
2021/03/25 03:34:39;;;;;;;;;;;3.80;99.90;;;;;;5074512;28;19915;-78
2021/03/25 03:37:08;;;;;;;;;;;3.80;99.90;;;;;;5060988;28;20000;-78
2021/03/25 03:39:34;;;;;;;;;;;3.80;99.90;;;;;;5063431;28;19951;-77
2021/03/25 03:42:02;;;;;;;;;;;3.80;99.90;;;;;;5059956;28;19984;-77
2021/03/25 03:44:29;;;;;;;;;;;3.80;99.90;;;;;;5054306;28;19905;-77
2021/03/25 03:46:57;;;;;;;;;;;3.80;99.90;;;;;;5054876;28;19927;-77
2021/03/25 03:49:22;;;;;;;;;;;3.70;99.90;;;;;;5053083;28;19944;-77
2021/03/25 03:51:53;;;;;;;;;;;3.80;99.90;;;;;;5052921;28;19912;-77
2021/03/25 03:54:19;;;;;;;;;;;3.80;99.90;;;;;;5054067;28;19904;-78
2021/03/25 03:56:51;;;;;;;;;;;3.80;99.90;;;;;;5054080;28;19911;-77
2021/03/25 03:59:26;;;;;;;;;;;3.90;99.90;;;;;;5053884;28;19904;-76
2021/03/25 04:01:56;;;;;;;;;;;3.90;99.90;;;;;;5054005;28;20003;-77
2021/03/25 04:04:27;;;;;;;;;;;3.90;99.90;;;;;;5055707;28;19912;-77
2021/03/25 04:07:01;;;;;;;;;;;3.90;99.90;;;;;;5053908;28;19909;-78
2021/03/25 04:09:39;;;;;;;;;;;3.90;99.90;;;;;;5052839;28;19904;-76
2021/03/25 04:12:08;;;;;;;;;;;3.90;99.90;;;;;;5053045;28;19904;-77
2021/03/25 04:14:36;;;;;;;;;;;4.00;99.90;;;;;;5052455;28;19905;-78
2021/03/25 04:17:04;;;;;;;;;;;4.00;99.90;;;;;;5054127;28;20303;-77
2021/03/25 04:19:49;;;;;;;;;;;4.10;99.90;;;;;;5053634;28;19905;-76
2021/03/25 04:22:19;;;;;;;;;;;4.20;99.90;;;;;;5054464;28;19916;-77
2021/03/25 04:24:50;;;;;;;;;;;4.10;99.90;;;;;;5054638;28;19909;-78
2021/03/25 04:27:18;;;;;;;;;;;4.10;99.90;;;;;;5054788;28;19909;-77
2021/03/25 04:29:53;;;;;;;;;;;4.00;99.90;;;;;;5054592;28;20381;-77
2021/03/25 04:32:19;;;;;;;;;;;4.00;99.90;;;;;;5033415;28;573598;-77
2021/03/25 04:34:46;;;;;;;;;;;3.90;99.90;;;;;;5053537;28;19940;-77
2021/03/25 04:37:12;;;;;;;;;;;3.80;99.90;;;;;;5054777;28;19905;-77
2021/03/25 04:39:39;;;;;;;;;;;3.80;99.90;;;;;;5053587;28;19927;-77
2021/03/25 04:42:05;;;;;;;;;;;3.80;99.90;;;;;;5056109;28;19909;-79
2021/03/25 04:44:40;;;;;;;;;;;3.80;99.90;;;;;;5055702;28;20100;-78
2021/03/25 04:47:12;;;;;;;;;;;3.90;99.90;;;;;;5055090;28;19958;-79
2021/03/25 04:49:59;;;;;;;;;;;3.80;99.90;;;;;;5054401;28;19909;-77
2021/03/25 04:52:28;;;;;;;;;;;3.90;99.90;;;;;;5055187;28;20409;-79
2021/03/25 04:54:54;;;;;;;;;;;3.90;99.90;;;;;;5053787;28;19904;-77
2021/03/25 04:57:24;;;;;;;;;;;3.80;99.90;;;;;;5054169;28;20382;-76
2021/03/25 04:59:51;;;;;;;;;;;3.80;99.90;;;;;;5054267;28;19952;-76
2021/03/25 05:02:16;;;;;;;;;;;3.90;99.90;;;;;;5053336;28;19909;-77
2021/03/25 05:04:44;;;;;;;;;;;3.90;99.90;;;;;;5052601;28;19908;-77
2021/03/25 05:07:12;;;;;;;;;;;4.00;99.90;;;;;;5054544;28;20344;-76
2021/03/25 05:09:38;;;;;;;;;;;4.10;99.90;;;;;;5053861;28;19912;-76
2021/03/25 05:12:03;;;;;;;;;;;4.20;99.90;;;;;;5052549;28;19905;-76
2021/03/25 05:14:29;;;;;;;;;;;4.20;99.90;;;;;;5053701;28;19951;-77
2021/03/25 05:17:04;;;;;;;;;;;4.20;99.90;;;;;;5052422;28;19943;-76
2021/03/25 05:19:39;;;;;;;;;;;4.20;99.90;;;;;;5054303;28;20429;-76
2021/03/25 05:22:19;;;;;;;;;;;4.20;99.90;;;;;;5056452;28;19913;-79
2021/03/25 05:24:57;;;;;;;;;;;4.30;99.90;;;;;;5057083;28;19999;-78
2021/03/25 05:27:28;;;;;;;;;;;4.30;99.90;;;;;;5057526;28;19915;-79
2021/03/25 05:29:55;;;;;;;;;;;4.20;99.90;;;;;;5056496;28;19905;-78
2021/03/25 05:32:22;;;;;;;;;;;4.30;99.90;;;;;;5057452;28;19923;-79
2021/03/25 05:34:48;;;;;;;;;;;4.30;99.90;;;;;;5053934;28;19912;-77
2021/03/25 05:37:14;;;;;;;;;;;4.40;99.90;;;;;;5052464;28;20041;-77
2021/03/25 05:39:40;;;;;;;;;;;4.40;99.90;;;;;;5053628;28;19936;-76
2021/03/25 05:42:14;;;;;;;;;;;4.50;99.90;;;;;;5053743;28;19908;-77
2021/03/25 05:44:50;;;;;;;;;;;4.50;99.90;;;;;;5051930;28;19911;-77
2021/03/25 05:47:33;;;;;;;;;;;4.70;99.90;;;;;;5052087;28;19908;-77
2021/03/25 05:50:14;;;;;;;;;;;4.70;99.90;;;;;;5052010;28;19908;-77
2021/03/25 05:52:39;;;;;;;;;;;4.80;99.90;;;;;;5051270;28;20360;-77
2021/03/25 05:55:09;;;;;;;;;;;4.90;99.90;;;;;;5052884;28;19905;-78
2021/03/25 05:57:52;;;;;;;;;;;5.00;99.90;;;;;;5053190;28;19916;-77
2021/03/25 06:00:25;;;;;;;;;;;5.10;99.90;;;;;;5052090;28;19911;-78
2021/03/25 06:02:54;;;;;;;;;;;5.20;99.90;;;;;;5053919;28;20360;-78
2021/03/25 06:05:19;;;;;;;;;;;5.30;99.90;;;;;;5051670;28;19905;-78
2021/03/25 06:07:55;;;;;;;;;;;5.40;99.90;;;;;;5054036;28;19955;-77
2021/03/25 06:10:24;;;;;;;;;;;5.40;99.90;;;;;;5054066;28;19959;-78
2021/03/25 06:13:08;;;;;;;;;;;5.40;99.90;;;;;;5053876;28;19912;-77
2021/03/25 06:15:55;;;;;;;;;;;5.50;99.90;;;;;;5053520;28;19936;-78
2021/03/25 06:18:32;;;;;;;;;;;5.60;99.90;;;;;;5053302;28;19944;-77
2021/03/25 06:21:19;;;;;;;;;;;5.70;99.90;;;;;;5050601;28;19940;-76
2021/03/25 06:23:44;;;;;;;;;;;5.80;99.90;;;;;;5050337;28;19919;-77
2021/03/25 06:26:42;;;;;;;;;;;5.90;99.90;;;;;;5050152;28;19904;-77
2021/03/25 06:29:20;;;;;;;;;;;5.90;99.90;;;;;;5018130;28;19904;-76
2021/03/25 06:31:53;;;;;;;;;;;6.00;99.90;;;;;;5051861;28;20364;-76
2021/03/25 06:34:25;;;;;;;;;;;6.20;99.90;;;;;;5061008;28;20000;-76
2021/03/25 06:37:13;;;;;;;;;;;6.30;99.90;;;;;;5070499;28;20375;-76
2021/03/25 06:39:49;;;;;;;;;;;6.30;99.90;;;;;;5071913;28;19944;-76
2021/03/25 06:42:21;;;;;;;;;;;6.50;99.90;;;;;;5071394;28;20447;-76
2021/03/25 06:44:46;;;;;;;;;;;6.60;99.90;;;;;;5072743;28;19904;-77
2021/03/25 06:47:20;;;;;;;;;;;6.60;99.90;;;;;;5058508;28;19931;-77
2021/03/25 06:49:48;;;;;;;;;;;6.70;99.90;;;;;;5053872;28;19912;-77
2021/03/25 06:52:13;;;;;;;;;;;6.70;99.90;;;;;;5068514;28;19908;-77
2021/03/25 06:54:39;;;;;;;;;;;7.00;99.90;;;;;;5064505;28;19951;-77
2021/03/25 06:57:05;;;;;;;;;;;7.00;99.90;;;;;;5062097;28;19908;-78
2021/03/25 06:59:32;;;;;;;;;;;7.10;99.90;;;;;;5072370;28;20343;-86
2021/03/25 07:02:15;;;;;;;;;;;7.40;99.90;;;;;;5073037;28;19908;-84
2021/03/25 07:04:43;;;;;;;;;;;7.50;99.90;;;;;;5072996;28;19911;-87
2021/03/25 07:07:14;;;;;;;;;;;7.80;99.90;;;;;;5074103;28;19908;-90
2021/03/25 07:09:40;;;;;;;;;;;8.90;99.90;;;;;;5072376;28;19905;-89
2021/03/25 07:12:10;;;;;;;;;;;10.30;99.90;;;;;;5073234;28;19975;-79
2021/03/25 07:14:40;;;;;;;8.52;3.70;;;11.20;99.90;;;;;;5072280;28;19905;-80
2021/03/25 07:17:09;;;;;;;6.63;4.05;;;12.10;99.90;;;;;;5071781;28;20031;-76
2021/03/25 07:19:38;;;;;;;8.88;4.05;;;12.20;99.90;;;;;;5072423;28;20028;-76
2021/03/25 07:22:21;;;;;;;8.65;4.32;;;12.70;99.90;;;;;;5071039;28;20395;-77
2021/03/25 07:24:47;;;;;;;6.53;4.45;;;13.10;99.90;;;;;;5073249;28;20017;-76
2021/03/25 07:27:33;;;;;;;6.65;4.13;;;14.30;99.90;;;;;;5075118;28;20021;-77
2021/03/25 07:30:03;;;;;;;5.33;2.67;;;14.90;99.90;;;;;;5075844;28;20056;-78
2021/03/25 07:32:37;;;;;;;5.85;3.30;;;15.20;99.90;;;;;;5076456;28;20792;-75
2021/03/25 07:35:38;;;;;;;5.40;2.78;;;15.70;99.90;;;;;;5075766;28;20024;-77
2021/03/25 07:38:43;;;;;;;6.25;3.58;;;16.20;98.30;;;;;;5076668;28;20027;-79
2021/03/25 07:41:25;;;;;;;4.15;3.30;;;17.70;91.70;;;;;;4998607;28;20174;-77
2021/03/25 07:44:03;;;;;;;4.40;2.92;;;17.60;92.10;;;;;;4997666;28;20025;-76
2021/03/25 07:46:45;;;;;;;6.25;3.42;;;18.80;90.30;;;;;;5042129;28;20033;-77
2021/03/25 07:49:11;;;;;;;5.43;3.53;;;18.50;84.30;;;;;;5057614;28;20025;-76
2021/03/25 07:51:50;;;;;;;4.32;3.25;;;18.60;82.10;;;;;;5068518;28;20105;-77
2021/03/25 07:54:17;;;;;;;5.05;3.17;;;18.90;79.30;;;;;;5054560;28;20033;-77
2021/03/25 07:56:54;;;;;;;4.13;2.88;;;18.50;80.30;;;;;;5064675;28;20027;-77
2021/03/25 07:59:30;;;;;;;3.97;3.20;;;18.40;79.00;;;;;;5074784;28;20029;-76
2021/03/25 08:01:56;;;;;;;;;;;18.60;77.60;;;;;;5075337;28;20059;-77
2021/03/25 08:04:26;;;;;;;4.80;3.20;;;18.70;79.10;;;;;;5075539;28;19962;-76
2021/03/25 08:07:08;;;;;;;3.58;3.08;;;18.70;77.90;;;;;;5074606;28;20020;-78
2021/03/25 08:09:53;;;;;;;6.68;3.80;;;18.90;78.40;;;;;;5058928;28;20338;-76
2021/03/25 08:12:32;;;;;;;5.68;3.03;;;19.20;77.40;;;;;;5055271;28;20028;-77
2021/03/25 08:15:16;;;;;;;5.63;4.03;;;20.20;72.90;;;;;;5054672;28;20028;-76
2021/03/25 08:17:45;;;;;;;7.72;3.80;;;20.20;68.10;;;;;;5054347;28;20033;-78
2021/03/25 08:20:45;;;;;;;4.40;2.83;;;20.20;70.10;;;;;;5056390;28;20036;-80
2021/03/25 08:23:26;;;;;;;;;;;21.20;67.20;;;;;;5057412;28;20067;-78
2021/03/25 08:26:22;;;;;;;7.40;3.35;;;20.80;64.50;;;;;;5054568;28;19983;-80
2021/03/25 08:29:19;;;;;;;5.22;3.00;;;20.70;65.90;;;;;;5050508;28;20033;-78
2021/03/25 08:31:55;;;;;;;4.47;3.20;;;21.80;60.60;;;;;;5055752;28;20039;-76
2021/03/25 08:34:45;;;;;;;6.38;4.47;;;22.60;62.50;;;;;;5055021;28;20013;-77
2021/03/25 08:37:29;;;;;;;5.00;3.45;;;21.90;60.70;;;;;;5053913;28;20025;-75
2021/03/25 08:40:06;;;;;;;;;;;20.70;63.00;;;;;;5053998;28;20134;-76
2021/03/25 08:42:36;;;;;;;7.10;3.65;;;21.00;60.90;;;;;;5052835;28;19917;-76
2021/03/25 08:45:04;;;;;;;;;;;21.60;64.20;;;;;;5052729;28;20033;-76
2021/03/25 08:47:48;;;;;;;6.35;3.47;;;22.70;61.20;;;;;;5053836;28;19909;-77
2021/03/25 08:50:25;;;;;;;3.40;3.00;;;23.10;59.30;;;;;;5053130;28;20056;-77
2021/03/25 08:52:53;;;;;;;6.60;3.35;;;23.00;55.70;;;;;;5053428;28;20025;-77
2021/03/25 08:55:35;;;;;;;5.05;3.25;;;22.40;57.10;;;;;;5053057;28;20036;-77
2021/03/25 08:58:11;;;;;;;6.10;3.80;;;22.40;56.20;;;;;;5055118;28;20095;-76
2021/03/25 09:00:38;;;;;;;;;;;23.20;57.50;;;;;;5054081;28;19909;-77
2021/03/25 09:03:14;;;;;;;;;;;23.40;53.70;;;;;;5052840;28;20414;-77
2021/03/25 09:05:43;;;;;;;5.50;3.53;;;23.10;55.30;;;;;;5052409;28;20288;-76
2021/03/25 09:08:15;;;;;;;5.93;3.00;;;23.60;55.20;;;;;;5054144;28;20293;-76
2021/03/25 09:10:45;;;;;;;3.70;3.15;;;23.60;55.40;;;;;;5052780;28;20503;-78
2021/03/25 09:13:17;;;;;;;5.28;3.28;;;24.50;53.80;;;;;;5053779;28;20028;-77
2021/03/25 09:15:44;;;;;;;5.13;3.70;;;25.50;51.90;;;;;;5053719;28;20036;-78
2021/03/25 09:18:14;;;;;;;4.20;3.58;;;26.00;50.70;;;;;;5053569;28;20028;-77
2021/03/25 09:20:45;;;;;;;7.18;3.13;;;26.50;50.00;;;;;;5053285;28;20024;-77
2021/03/25 09:23:32;;;;;;;4.85;3.42;;;26.30;47.30;;;;;;5055662;28;20145;-76
2021/03/25 09:26:00;;;;;;;4.85;3.42;;;26.10;48.10;;;;;;5060003;28;20538;-78
2021/03/25 09:29:04;;;;;;;4.60;3.28;;;25.10;48.10;;;;;;5066962;28;20025;-76
2021/03/25 09:31:39;;;;;;;6.05;3.17;;;25.10;49.80;;;;;;5052105;28;20029;-74
2021/03/25 09:34:11;;;;;;;5.07;3.40;;;25.70;48.60;;;;;;5070400;28;20032;-78
2021/03/25 09:36:37;;;;;;;7.05;4.25;;;26.40;48.00;;;;;;5073842;28;20056;-77
2021/03/25 09:39:03;;;;;;;6.03;4.10;;;25.50;47.50;;;;;;5072470;28;20056;-78
2021/03/25 09:41:29;;;;;;;6.25;3.50;;;25.90;48.30;;;;;;5072019;28;20030;-75
2021/03/25 09:44:14;;;;;;;;;;;25.70;47.70;;;;;;5063685;28;20021;-79
2021/03/25 09:46:46;;;;;;;;;;;24.50;49.60;;;;;;5063036;28;20917;-77
2021/03/25 09:49:31;;;;;;;;;;;23.70;51.70;;;;;;5062684;28;19954;-77
2021/03/25 09:52:06;;;;;;;;;;;23.50;51.10;;;;;;5063159;28;20023;-76
2021/03/25 09:54:32;;;;;;;;;;;23.00;53.40;;;;;;5062589;28;19908;-77
2021/03/25 09:57:17;;;;;;;;;;;23.10;53.10;;;;;;5060823;28;19910;-77
2021/03/25 09:59:49;;;;;;;;;;;24.00;51.50;;;;;;5068470;28;19904;-76
2021/03/25 10:02:34;;;;;;;;;;;25.00;49.60;;;;;;5054678;28;19916;-78
2021/03/25 10:08:13;;;;;;;;;;;24.90;50.10;;;;;;5053919;28;20039;-79
2021/03/25 10:10:44;;;;;;;;;;;24.30;49.50;;;;;;5025120;28;19943;-77
2021/03/25 10:13:13;;;;;;;;;;;24.30;50.90;;;;;;5069665;28;19908;-78
2021/03/25 10:15:49;;;;;;;;;;;24.20;50.90;;;;;;5052768;28;19920;-78
2021/03/25 10:18:15;;;;;;;;;;;24.20;52.30;;;;;;5069795;28;19917;-78
2021/03/25 10:20:57;;;;;;;;;;;23.90;50.40;;;;;;5068737;28;20467;-78
2021/03/25 10:23:42;;;;;;;;;;;24.00;51.00;;;;;;5073030;28;19908;-78
2021/03/25 10:26:16;;;;;;;;;;;23.90;52.70;;;;;;5072673;28;20298;-79
2021/03/25 10:29:01;;;;;;;;;;;23.70;52.70;;;;;;5074780;28;19905;-78
2021/03/25 10:31:29;;;;;;;;;;;24.40;51.50;;;;;;5073692;28;19919;-77
2021/03/25 10:34:00;;;;;;;;;;;24.30;51.30;;;;;;5073829;28;19904;-76
2021/03/25 10:36:32;;;;;;;;;;;25.20;49.90;;;;;;5075208;28;19908;-78
2021/03/25 10:38:59;;;;;;;;;;;25.50;50.50;;;;;;5075894;28;20263;-77
2021/03/25 10:41:31;;;;;;;;;;;25.50;51.50;;;;;;5080786;28;19908;-77
2021/03/25 10:43:57;;;;;;;10.73;5.80;;;25.40;49.40;;;;;;5070252;28;19911;-78
2021/03/25 10:46:34;;;;;;;11.20;5.37;;;25.70;49.90;;;;;;5059749;28;20021;-75
2021/03/25 10:49:02;;;;;;;14.85;6.20;;;25.40;50.80;;;;;;5060800;28;20048;-76
2021/03/25 10:51:31;;;;;;;10.52;5.25;;;25.10;51.00;;;;;;5063224;28;20063;-77
2021/03/25 10:54:01;;;;;;;9.55;5.32;;;25.10;50.20;;;;;;5063821;28;20028;-77
2021/03/25 10:56:28;;;;;;;10.32;5.20;;;25.40;51.10;;;;;;5062011;28;20029;-77
2021/03/25 10:59:01;;;;;;;13.63;6.15;;;25.60;49.80;;;;;;5061556;28;19909;-78
2021/03/25 11:01:29;;;;;;;11.50;6.10;;;26.20;50.30;;;;;;5063790;28;20044;-77
2021/03/25 11:03:55;;;;;;;10.15;5.68;;;26.20;49.70;;;;;;5064290;28;20503;-77
2021/03/25 11:06:28;;;;;;;;;;;26.40;47.80;;;;;;5065672;28;20033;-77
2021/03/25 11:09:02;;;;;;;;;;;25.20;50.30;;;;;;5058274;28;19912;-77
2021/03/25 11:11:29;;;;;;;10.85;5.72;;;24.90;50.10;;;;;;5055219;28;19912;-78
2021/03/25 11:13:56;;;;;;;;;;;24.70;50.90;;;;;;5056812;28;20027;-78
2021/03/25 11:16:22;;;;;;;;;;;24.20;52.70;;;;;;5056501;28;19959;-77
2021/03/25 11:18:49;;;;;;;;;;;23.60;52.00;;;;;;5057406;28;19905;-77
2021/03/25 11:21:32;;;;;;;;;;;23.70;52.20;;;;;;5074587;28;19911;-75
2021/03/25 11:24:11;;;;;;;;;;;24.00;53.00;;;;;;5076819;28;19904;-77
2021/03/25 11:26:37;;;;;;;;;;;23.70;53.30;;;;;;5077894;28;19904;-78
2021/03/25 11:29:05;;;;;;;;;;;23.40;55.00;;;;;;5078697;28;20331;-78
2021/03/25 11:31:32;;;;;;;;;;;22.40;54.70;;;;;;5078448;28;19913;-78
2021/03/25 11:33:57;;;;;;;;;;;22.40;55.90;;;;;;5078731;28;19911;-76
2021/03/25 11:36:52;;;;;;;;;;;22.50;56.40;;;;;;5078776;28;19905;-78
2021/03/25 11:39:24;;;;;;;;;;;23.10;54.60;;;;;;5060060;28;19905;-78
2021/03/25 11:41:52;;;;;;;;;;;22.70;54.60;;;;;;5073431;28;20286;-78
2021/03/25 11:44:54;;;;;;;;;;;22.50;55.40;;;;;;5067314;28;19908;-79
2021/03/25 11:47:19;;;;;;;;;;;21.60;56.50;;;;;;4996272;28;19906;-79
2021/03/25 11:49:45;;;;;;;;;;;21.90;56.80;;;;;;5045299;28;19905;-78
2021/03/25 11:52:13;;;;;;;;;;;21.70;57.90;;;;;;5073352;28;19904;-77
2021/03/25 11:54:39;;;;;;;;;;;21.70;57.60;;;;;;5071048;28;19904;-76
2021/03/25 11:57:20;;;;;;;;;;;21.90;60.00;;;;;;5055789;28;19911;-77
2021/03/25 11:59:45;;;;;;;10.90;5.82;;;21.60;58.90;;;;;;5061607;28;19909;-76
2021/03/25 12:02:23;;;;;;;12.90;5.22;;;21.70;59.30;;;;;;5062625;28;20085;-79
2021/03/25 12:04:50;;;;;;;16.85;6.43;;;22.30;58.20;;;;;;5073488;28;20021;-77
2021/03/25 12:07:17;;;;;;;;;;;22.40;57.10;;;;;;5075273;28;20551;-78
2021/03/25 12:10:01;;;;;;;10.15;5.68;;;22.00;58.10;;;;;;5075873;28;19915;-77
2021/03/25 12:12:27;;;;;;;10.82;6.70;;;21.80;58.90;;;;;;5074350;28;20024;-78
2021/03/25 12:14:53;;;;;;;11.98;6.60;;;22.10;59.10;;;;;;5069813;28;20028;-77
2021/03/25 12:17:19;;;;;;;10.68;5.45;;;22.00;59.00;;;;;;5075573;28;20036;-76
2021/03/25 12:19:45;;;;;;;9.98;5.25;;;21.60;60.20;;;;;;5074904;28;20029;-77
2021/03/25 12:22:13;;;;;;;9.10;5.50;;;21.80;58.50;;;;;;5074703;28;20025;-75
2021/03/25 12:24:38;;;;;;;;;;;21.60;58.80;;;;;;5073312;28;19904;-76
2021/03/25 12:27:04;;;;;;;;;;;22.10;56.40;;;;;;5074505;28;19911;-77
2021/03/25 12:29:30;;;;;;;;;;;21.70;57.20;;;;;;5073317;28;19912;-79
2021/03/25 12:31:56;;;;;;;;;;;21.90;57.40;;;;;;5068087;28;19913;-76
2021/03/25 12:34:23;;;;;;;;;;;22.20;56.60;;;;;;5054131;28;19916;-77
2021/03/25 12:36:48;;;;;;;;;;;22.20;57.20;;;;;;5063819;28;19944;-77
2021/03/25 12:39:14;;;;;;;;;;;21.50;54.40;;;;;;5061375;28;19916;-77
2021/03/25 12:41:43;;;;;;;;;;;21.10;55.70;;;;;;5064459;28;19987;-77
2021/03/25 12:44:09;;;;;;;;;;;20.70;58.00;;;;;;5064661;28;20256;-79
2021/03/25 12:46:34;;;;;;;;;;;20.20;55.00;;;;;;5064409;28;19919;-78
2021/03/25 12:49:00;;;;;;;;;;;19.80;57.70;;;;;;5063455;28;19991;-79
2021/03/25 12:51:26;;;;;;;;;;;19.20;59.40;;;;;;5055292;28;19905;-79
2021/03/25 12:53:51;;;;;;;;;;;19.00;61.20;;;;;;5056296;28;19985;-79
2021/03/25 12:56:23;;;;;;;;;;;19.30;61.10;;;;;;5057975;28;19917;-78
2021/03/25 12:58:48;;;;;;;;;;;19.60;60.10;;;;;;5075245;28;19957;-78
2021/03/25 13:01:16;;;;;;;;;;;19.70;60.00;;;;;;5075035;28;19964;-78
2021/03/25 13:03:42;;;;;;;;;;;19.60;60.70;;;;;;5075334;28;20187;-78
2021/03/25 13:06:09;;;;;;;;;;;19.80;61.30;;;;;;5075150;28;19904;-78
2021/03/25 13:08:34;;;;;;;;;;;19.90;61.50;;;;;;5068931;28;19909;-78
2021/03/25 13:11:00;;;;;;;;;;;20.10;60.90;;;;;;5056141;28;19959;-77
2021/03/25 13:13:26;;;;;;;;;;;20.00;61.70;;;;;;5060192;28;19954;-78
2021/03/25 13:15:52;;;;;;;;;;;20.20;62.00;;;;;;5059430;28;20378;-78
2021/03/25 13:18:17;;;;;;;;;;;20.10;62.20;;;;;;5060567;28;19915;-77
2021/03/25 13:20:43;;;;;;;;;;;19.80;62.60;;;;;;5065970;28;19904;-78
2021/03/25 13:23:10;;;;;;;;;;;19.60;63.50;;;;;;5068652;28;19951;-78
2021/03/25 13:25:36;;;;;;;;;;;19.40;62.80;;;;;;5071964;28;19908;-78
2021/03/25 13:28:02;;;;;;;;;;;19.20;64.80;;;;;;5070555;28;19909;-77
2021/03/25 13:30:28;;;;;;;;;;;19.10;64.30;;;;;;5052908;28;19905;-78
2021/03/25 13:32:54;;;;;;;;;;;18.90;65.40;;;;;;5069091;28;19912;-77
2021/03/25 13:35:21;;;;;;;;;;;18.90;66.00;;;;;;5053296;28;20632;-78
2021/03/25 13:37:46;;;;;;;;;;;19.00;65.40;;;;;;5053653;28;20356;-77
2021/03/25 13:40:14;;;;;;;;;;;19.00;65.40;;;;;;5068834;28;19935;-79
2021/03/25 13:42:39;;;;;;;;;;;18.80;65.80;;;;;;5052463;28;19909;-77
2021/03/25 13:45:06;;;;;;;;;;;18.70;64.00;;;;;;5069688;28;20035;-78
2021/03/25 13:47:32;;;;;;;;;;;18.90;66.60;;;;;;5057629;28;20078;-77
2021/03/25 13:49:57;;;;;;;;;;;18.50;66.70;;;;;;5051000;28;19951;-79
2021/03/25 13:52:23;;;;;;;;;;;18.50;69.30;;;;;;5059519;28;19904;-76
2021/03/25 13:54:48;;;;;;;;;;;18.50;70.70;;;;;;5071664;28;19934;-76
2021/03/25 13:57:15;;;;;;;;;;;18.60;72.60;;;;;;5072722;28;19915;-77
2021/03/25 13:59:41;;;;;;;;;;;18.80;69.30;;;;;;5071070;28;19912;-78
2021/03/25 14:02:07;;;;;;;;;;;18.90;68.50;;;;;;5071479;28;19908;-77
2021/03/25 14:04:32;;;;;;;;;;;18.80;69.50;;;;;;5066358;28;20038;-76
2021/03/25 14:06:58;;;;;;;;;;;18.80;68.00;;;;;;5055947;28;19905;-77
2021/03/25 14:09:23;;;;;;;;;;;18.80;71.10;;;;;;5064234;28;20009;-77
2021/03/25 14:11:48;;;;;;;;;;;18.80;69.80;;;;;;5051163;28;19908;-78
2021/03/25 14:14:14;;;;;;;;;;;18.80;67.30;;;;;;5052003;28;20355;-78
2021/03/25 14:16:40;;;;;;;;;;;18.80;67.90;;;;;;5068214;28;19905;-76
2021/03/25 14:19:05;;;;;;;;;;;18.60;65.40;;;;;;5070568;28;19951;-77
2021/03/25 14:21:31;;;;;;;;;;;18.50;66.40;;;;;;5072284;28;19916;-77
2021/03/25 14:23:56;;;;;;;;;;;18.50;66.10;;;;;;5071840;28;19912;-77
2021/03/25 14:26:22;;;;;;;;;;;18.50;66.50;;;;;;5067475;28;19962;-78